Decoded Metar for KBBP ( in ) (IATA:) | Meteo·Mobile Aviation Weather
aviador You're here:

KBBP Decoded Metar

in
Report Time2019-10-18 13:15:00
UTC Time2019-10-18 13:26:07
Flight Rules vfr VFR
WindCalm
Visibility9999 m
Phenomena:N/A
Clouds:N/A
Expected CloudBase > 1,200 ft AGL from Temp-Dew spread
CeilingNone
Temp10°C
Dew Point07°C (82% RH)
AAT9.3°C
QNH1017 hPa
Raw Report
METAR KBBP 181315Z AUTO 00000KT 10SM CLR 10/07 A3004 RMK AO2=

Extra information for KBBP:More info

Social comments